Time;durP1;ratioP1;P1;durP2;ratioP2;P2;SDS_P1;SDS_P2;PMS_P1;PMS_P2;Temp;Humidity;BMP_temperature;BMP_pressure;BME280_temperature;BME280_humidity;BME280_pressure;Samples;Min_cycle;Max_cycle;Signal;HPM_P1;HPM_P2
2022/07/07 00:02:12;;;;;;;4.90;1.88;;;;;;;16.24;93.50;100708.50;5044237;28;20029;-66
2022/07/07 00:04:37;;;;;;;4.00;2.08;;;;;;;16.29;93.60;100714.53;5042998;28;20033;-65
2022/07/07 00:07:03;;;;;;;3.15;1.98;;;;;;;16.36;92.06;100714.19;5042790;28;20033;-65
2022/07/07 00:09:30;;;;;;;3.13;1.83;;;;;;;16.44;92.60;100708.50;5039938;28;20388;-65
2022/07/07 00:11:56;;;;;;;2.97;1.92;;;;;;;16.48;91.64;100699.38;5049094;28;20028;-65
2022/07/07 00:14:21;;;;;;;3.20;2.00;;;;;;;16.49;92.09;100706.50;5051421;28;20352;-65
2022/07/07 00:16:47;;;;;;;4.07;2.05;;;;;;;16.50;92.44;100703.75;5056093;28;20035;-65
2022/07/07 00:19:12;;;;;;;3.17;2.03;;;;;;;16.56;91.64;100702.56;5070137;28;20550;-66
2022/07/07 00:21:37;;;;;;;3.28;1.60;;;;;;;16.60;92.48;100701.50;5048418;28;20032;-66
2022/07/07 00:24:03;;;;;;;3.28;1.90;;;;;;;16.65;91.43;100694.09;5039930;28;20091;-66
2022/07/07 00:26:30;;;;;;;4.68;2.10;;;;;;;16.70;90.61;100698.31;5034050;28;20029;-66
2022/07/07 00:28:55;;;;;;;3.92;2.25;;;;;;;16.70;90.79;100684.00;5050849;28;20404;-66
2022/07/07 00:31:21;;;;;;;4.28;1.98;;;;;;;16.80;90.48;100688.84;5050974;28;20036;-66
2022/07/07 00:33:46;;;;;;;2.25;1.67;;;;;;;16.82;90.55;100678.03;5051063;28;20035;-66
2022/07/07 00:36:12;;;;;;;3.00;1.98;;;;;;;16.85;90.67;100680.59;5050912;28;20028;-66
2022/07/07 00:38:37;;;;;;;4.88;2.28;;;;;;;16.92;89.75;100682.03;5050999;28;20104;-66
2022/07/07 00:41:03;;;;;;;4.78;2.35;;;;;;;16.96;87.74;100678.25;5051094;28;20094;-66
2022/07/07 00:43:35;;;;;;;2.92;2.00;;;;;;;17.01;84.90;100673.53;5051051;28;20024;-66
2022/07/07 00:46:02;;;;;;;2.58;2.13;;;;;;;17.08;83.81;100680.38;5050549;28;20020;-66
2022/07/07 00:48:27;;;;;;;4.60;2.30;;;;;;;17.15;83.00;100673.72;5049869;28;20029;-66
2022/07/07 00:50:53;;;;;;;4.22;2.28;;;;;;;17.25;82.09;100677.72;5050678;28;20045;-66
2022/07/07 00:53:18;;;;;;;5.72;2.47;;;;;;;17.31;81.54;100682.81;5043280;28;20389;-66
2022/07/07 00:55:44;;;;;;;4.05;2.72;;;;;;;17.27;79.19;100678.50;5030916;28;20075;-66
2022/07/07 00:58:09;;;;;;;4.60;2.25;;;;;;;17.30;79.48;100681.03;5030623;28;20489;-66
2022/07/07 01:00:35;;;;;;;4.18;2.67;;;;;;;17.33;79.70;100671.97;5029485;28;20037;-66
2022/07/07 01:03:01;;;;;;;3.75;1.85;;;;;;;17.33;79.80;100677.34;5029481;28;20025;-65
2022/07/07 01:05:28;;;;;;;5.50;2.05;;;;;;;17.31;80.03;100674.75;5031699;28;20021;-65
2022/07/07 01:07:55;;;;;;;4.13;2.40;;;;;;;17.31;79.45;100674.75;5049336;28;20329;-65
2022/07/07 01:10:20;;;;;;;5.30;2.58;;;;;;;17.24;79.45;100667.03;5049625;28;20021;-65
2022/07/07 01:12:45;;;;;;;4.13;2.03;;;;;;;17.23;79.61;100666.19;5048170;28;20502;-65
2022/07/07 01:15:13;;;;;;;4.13;2.35;;;;;;;17.16;79.67;100670.13;5050444;28;20029;-65
2022/07/07 01:17:39;;;;;;;3.58;2.33;;;;;;;16.99;80.39;100667.38;5062352;28;20118;-65
2022/07/07 01:20:06;;;;;;;3.72;2.10;;;;;;;16.98;80.80;100668.31;5062783;28;20107;-65
2022/07/07 01:22:36;;;;;;;4.07;2.00;;;;;;;16.91;80.87;100661.50;5050038;28;20388;-66
2022/07/07 01:25:02;;;;;;;3.85;2.10;;;;;;;16.88;81.45;100667.03;5050209;28;20041;-65
2022/07/07 01:27:27;;;;;;;5.38;2.70;;;;;;;16.84;81.61;100655.53;5050561;28;20551;-65
2022/07/07 01:29:55;;;;;;;4.07;2.10;;;;;;;16.84;80.80;100655.53;5050220;28;20071;-65
2022/07/07 01:32:22;;;;;;;6.00;2.20;;;;;;;16.80;80.80;100650.41;5050537;28;20029;-66
2022/07/07 01:34:48;;;;;;;3.13;1.90;;;;;;;16.71;80.92;100654.38;5050419;28;20451;-65
2022/07/07 01:37:15;;;;;;;3.90;1.95;;;;;;;16.68;81.27;100650.97;5050616;28;20426;-65
2022/07/07 01:39:41;;;;;;;4.88;2.00;;;;;;;16.66;80.62;100658.22;5050002;28;20037;-65
2022/07/07 01:42:08;;;;;;;3.50;2.20;;;;;;;16.62;81.15;100645.91;5050286;28;20086;-65
2022/07/07 01:44:38;;;;;;;3.97;2.05;;;;;;;16.65;81.00;100635.00;5050202;28;20055;-66
2022/07/07 01:47:05;;;;;;;4.20;2.40;;;;;;;16.57;80.59;100632.66;5049680;28;20020;-66
2022/07/07 01:49:32;;;;;;;3.80;2.15;;;;;;;16.52;81.43;100639.22;5050948;28;20046;-65
2022/07/07 01:51:58;;;;;;;4.38;2.10;;;;;;;16.50;81.87;100647.34;5032484;28;20036;-66
2022/07/07 01:54:25;;;;;;;4.13;1.98;;;;;;;16.43;82.70;100653.91;5033987;28;20057;-65
2022/07/07 01:56:50;;;;;;;3.50;2.05;;;;;;;16.39;82.59;100654.13;5029730;28;20037;-66
2022/07/07 01:59:16;;;;;;;2.75;1.80;;;;;;;16.32;81.43;100636.53;5034815;28;20402;-66
2022/07/07 02:01:41;;;;;;;3.38;2.00;;;;;;;16.42;81.94;100659.34;5049868;28;20083;-66
2022/07/07 02:04:07;;;;;;;4.05;2.00;;;;;;;16.43;82.59;100655.69;5050367;28;20123;-66
2022/07/07 02:06:32;;;;;;;2.08;1.65;;;;;;;16.40;81.81;100658.53;5049665;28;20123;-66
2022/07/07 02:08:58;;;;;;;3.70;2.20;;;;;;;16.40;82.07;100661.22;5049473;28;20500;-65
2022/07/07 02:11:25;;;;;;;6.40;2.13;;;;;;;16.39;82.11;100660.34;5048739;28;20033;-66
2022/07/07 02:13:52;;;;;;;3.50;2.30;;;;;;;16.38;82.11;100663.09;5042529;28;20025;-66
2022/07/07 02:16:20;;;;;;;3.22;1.85;;;;;;;16.35;82.14;100665.94;5047722;28;20025;-66
2022/07/07 02:18:48;;;;;;;3.80;2.08;;;;;;;16.31;82.39;100672.41;5069146;28;20109;-66
2022/07/07 02:21:15;;;;;;;4.18;2.03;;;;;;;16.25;83.34;100667.28;5053721;28;20025;-66
2022/07/07 02:23:43;;;;;;;5.47;2.55;;;;;;;16.17;83.07;100678.38;5050584;28;20081;-66
2022/07/07 02:26:09;;;;;;;6.30;2.10;;;;;;;16.13;83.62;100665.19;5052249;28;20048;-66
2022/07/07 02:28:35;;;;;;;3.30;2.05;;;;;;;16.09;82.54;100656.38;5041781;28;20530;-66
2022/07/07 02:31:01;;;;;;;5.03;2.25;;;;;;;16.14;82.38;100648.13;5053139;28;20021;-66
2022/07/07 02:33:27;;;;;;;4.40;2.38;;;;;;;16.23;81.83;100650.38;5052057;28;20048;-66
2022/07/07 02:35:53;;;;;;;5.45;2.30;;;;;;;16.29;81.18;100659.00;5052236;28;20033;-66
2022/07/07 02:38:19;;;;;;;7.78;2.25;;;;;;;16.30;81.15;100662.56;5051889;28;20028;-66
2022/07/07 02:40:46;;;;;;;11.55;2.38;;;;;;;16.26;81.07;100663.69;5051824;28;20110;-66
2022/07/07 02:43:12;;;;;;;5.78;1.88;;;;;;;16.27;81.20;100660.03;5051833;28;20087;-66
2022/07/07 02:45:48;;;;;;;5.53;2.00;;;;;;;16.29;81.05;100653.66;5052471;28;20055;-67
2022/07/07 02:48:17;;;;;;;5.28;2.00;;;;;;;16.28;80.33;100659.09;5052457;28;20550;-65
2022/07/07 02:50:43;;;;;;;6.15;2.40;;;;;;;16.23;80.66;100655.75;5048879;28;20017;-65
2022/07/07 02:53:10;;;;;;;7.35;2.92;;;;;;;16.22;80.71;100651.31;5047063;28;20032;-65
2022/07/07 02:55:36;;;;;;;3.92;2.20;;;;;;;16.25;81.65;100651.19;5052796;28;20109;-65
2022/07/07 02:58:03;;;;;;;5.80;2.38;;;;;;;16.21;80.97;100646.91;5052639;28;20532;-65
2022/07/07 03:00:29;;;;;;;6.05;2.20;;;;;;;16.18;79.75;100644.34;5053196;28;20480;-66
2022/07/07 03:02:55;;;;;;;5.28;2.00;;;;;;;16.18;81.20;100642.53;5053137;28;20036;-65
2022/07/07 03:05:22;;;;;;;4.03;2.25;;;;;;;16.16;80.60;100643.56;5052822;28;20043;-67
2022/07/07 03:07:48;;;;;;;6.32;2.22;;;;;;;16.17;80.77;100642.59;5052684;28;20037;-66
2022/07/07 03:10:14;;;;;;;4.10;2.78;;;;;;;16.22;80.87;100645.97;5052854;28;20025;-66
2022/07/07 03:12:39;;;;;;;3.85;2.20;;;;;;;16.18;80.51;100642.53;5052167;28;20056;-66
2022/07/07 03:15:06;;;;;;;9.23;2.03;;;;;;;16.12;81.55;100644.63;5052149;28;20029;-66
2022/07/07 03:17:31;;;;;;;3.28;2.17;;;;;;;16.11;81.41;100640.22;5063536;28;20423;-66
2022/07/07 03:19:57;;;;;;;3.03;1.75;;;;;;;16.07;80.61;100635.91;5066180;28;20087;-66
2022/07/07 03:22:22;;;;;;;3.28;1.70;;;;;;;16.05;79.74;100643.16;5052759;28;20062;-66
2022/07/07 03:24:47;;;;;;;6.40;2.20;;;;;;;16.14;81.36;100632.00;5052310;28;20025;-66
2022/07/07 03:27:13;;;;;;;4.10;2.13;;;;;;;16.16;79.93;100640.88;5052507;28;20021;-66
2022/07/07 03:29:38;;;;;;;5.82;2.30;;;;;;;16.17;80.28;100634.56;5051775;28;20533;-66
2022/07/07 03:32:04;;;;;;;5.22;2.33;;;;;;;16.21;80.55;100628.97;5052474;28;20021;-66
2022/07/07 03:34:30;;;;;;;2.63;1.88;;;;;;;16.20;80.04;100637.97;5051859;28;20032;-66
2022/07/07 03:36:55;;;;;;;7.75;2.22;;;;;;;16.19;79.65;100635.38;5050557;28;20476;-66
2022/07/07 03:39:21;;;;;;;5.15;2.15;;;;;;;16.18;80.08;100628.22;5050578;28;20074;-65
2022/07/07 03:41:46;;;;;;;4.85;2.17;;;;;;;16.16;79.38;100635.50;5050252;28;20021;-66
2022/07/07 03:44:11;;;;;;;4.78;2.10;;;;;;;16.13;79.53;100625.75;5050105;28;20103;-67
2022/07/07 03:46:37;;;;;;;12.75;2.58;;;;;;;16.09;80.26;100618.81;5050164;28;20577;-65
2022/07/07 03:49:03;;;;;;;5.95;2.15;;;;;;;16.05;80.86;100621.69;5050039;28;20044;-65
2022/07/07 03:51:28;;;;;;;5.10;2.00;;;;;;;16.01;81.21;100618.28;5051326;28;20032;-65
2022/07/07 03:53:54;;;;;;;3.70;2.42;;;;;;;16.00;81.45;100613.84;5051862;28;20094;-65
2022/07/07 03:56:19;;;;;;;5.85;2.45;;;;;;;15.96;80.30;100624.78;5051820;28;20029;-66
2022/07/07 03:58:45;;;;;;;4.13;1.88;;;;;;;16.01;80.50;100614.72;5051613;28;20373;-66
2022/07/07 04:01:10;;;;;;;8.52;2.13;;;;;;;15.99;81.87;100624.66;5051443;28;20035;-66
2022/07/07 04:03:37;;;;;;;6.32;2.30;;;;;;;15.97;81.47;100624.72;5051898;28;20747;-66
2022/07/07 04:06:04;;;;;;;5.63;2.05;;;;;;;15.92;81.36;100626.75;5051704;28;20379;-66
2022/07/07 04:08:29;;;;;;;4.18;2.47;;;;;;;15.85;82.41;100624.41;5041829;28;20409;-66
2022/07/07 04:10:55;;;;;;;5.22;2.22;;;;;;;15.77;82.08;100625.63;5030931;28;20035;-66
2022/07/07 04:13:20;;;;;;;5.70;2.22;;;;;;;15.72;82.93;100619.56;5029508;28;20026;-66
2022/07/07 04:15:45;;;;;;;5.72;2.10;;;;;;;15.69;83.86;100633.13;5032908;28;20032;-66
2022/07/07 04:18:11;;;;;;;5.18;2.25;;;;;;;15.62;83.49;100620.91;5047885;28;20072;-66
2022/07/07 04:20:37;;;;;;;7.25;2.40;;;;;;;15.64;82.66;100619.03;5039282;28;20048;-66
2022/07/07 04:23:02;;;;;;;4.40;2.20;;;;;;;15.73;83.18;100632.03;5036109;28;20081;-67
2022/07/07 04:25:27;;;;;;;4.30;2.20;;;;;;;15.79;81.73;100630.91;5051601;28;20020;-66
2022/07/07 04:27:53;;;;;;;5.18;1.90;;;;;;;15.82;81.47;100637.00;5050861;28;20020;-66
2022/07/07 04:30:18;;;;;;;4.20;1.83;;;;;;;15.83;81.78;100636.06;5051363;28;20484;-66
2022/07/07 04:32:44;;;;;;;4.25;1.95;;;;;;;15.81;81.51;100629.88;5051313;28;20047;-66
2022/07/07 04:35:09;;;;;;;5.40;2.20;;;;;;;15.90;80.92;100633.13;5051104;28;20039;-66
2022/07/07 04:37:35;;;;;;;4.07;2.00;;;;;;;15.99;79.82;100632.69;5045097;28;20031;-66
2022/07/07 04:40:03;;;;;;;3.83;1.95;;;;;;;16.01;79.98;100636.19;5030460;28;20095;-66
2022/07/07 04:42:29;;;;;;;2.85;2.08;;;;;;;16.04;79.84;100628.00;5039648;28;20020;-66
2022/07/07 04:44:54;;;;;;;4.22;2.38;;;;;;;16.10;79.68;100635.75;5042734;28;20028;-66
2022/07/07 04:47:20;;;;;;;5.50;2.47;;;;;;;16.17;79.62;100631.88;5037556;28;20036;-66
2022/07/07 04:49:45;;;;;;;4.10;2.15;;;;;;;16.33;79.59;100635.59;5051147;28;20029;-66
2022/07/07 04:52:11;;;;;;;4.05;2.53;;;;;;;16.54;77.23;100648.94;5051144;28;20033;-66
2022/07/07 04:54:36;;;;;;;3.75;2.20;;;;;;;16.61;76.42;100634.28;5050865;28;20024;-66
2022/07/07 04:57:02;;;;;;;2.80;1.92;;;;;;;16.75;76.75;100641.69;5048740;28;20107;-67
2022/07/07 04:59:27;;;;;;;3.78;2.45;;;;;;;16.82;76.49;100637.72;5044878;28;20028;-67
2022/07/07 05:01:52;;;;;;;3.95;2.25;;;;;;;16.91;75.84;100627.44;5049091;28;20027;-67
2022/07/07 05:04:18;;;;;;;4.20;2.40;;;;;;;16.99;75.70;100625.25;5048248;28;20028;-67
2022/07/07 05:06:43;;;;;;;4.90;2.25;;;;;;;17.09;75.22;100625.66;5049251;28;20377;-64
2022/07/07 05:09:09;;;;;;;3.83;2.10;;;;;;;17.23;75.14;100622.28;5049166;28;20029;-66
2022/07/07 05:11:35;;;;;;;5.88;2.25;;;;;;;17.12;74.37;100589.69;5049246;28;20021;-66
2022/07/07 05:14:01;;;;;;;2.90;1.90;;;;;;;17.36;73.27;100612.66;5049576;28;20545;-66
2022/07/07 05:16:27;;;;;;;3.72;2.05;;;;;;;17.44;74.15;100611.31;5051696;28;20029;-66
2022/07/07 05:18:52;;;;;;;3.13;1.80;;;;;;;17.55;73.12;100614.34;5068239;28;20072;-66
2022/07/07 05:21:18;;;;;;;6.72;2.17;;;;;;;17.62;72.45;100621.16;5051244;28;20116;-66
2022/07/07 05:23:43;;;;;;;4.53;2.28;;;;;;;17.68;72.42;100623.53;5049126;28;20039;-66
2022/07/07 05:26:08;;;;;;;4.20;2.00;;;;;;;17.76;72.70;100624.00;5049492;28;20021;-66
2022/07/07 05:28:36;;;;;;;3.88;2.38;;;;;;;17.83;73.64;100628.13;5049155;28;20467;-66
2022/07/07 05:31:02;;;;;;;6.43;2.20;;;;;;;17.89;73.64;100629.63;5050595;28;20075;-66
2022/07/07 05:33:28;;;;;;;2.88;1.83;;;;;;;17.89;73.44;100625.09;5050657;28;20059;-66
2022/07/07 05:35:53;;;;;;;5.13;2.00;;;;;;;17.84;72.30;100621.75;5050650;28;20101;-66
2022/07/07 05:38:19;;;;;;;4.78;1.95;;;;;;;17.90;72.95;100626.84;5050101;28;20479;-65
2022/07/07 05:40:44;;;;;;;3.08;1.88;;;;;;;18.02;73.06;100626.19;5045531;28;20028;-66
2022/07/07 05:43:10;;;;;;;2.70;1.80;;;;;;;18.06;71.45;100622.38;5044787;28;20045;-66
2022/07/07 05:45:35;;;;;;;5.85;2.10;;;;;;;18.09;71.32;100627.59;5050541;28;20454;-66
2022/07/07 05:48:00;;;;;;;5.55;2.10;;;;;;;18.18;71.54;100629.81;5050458;28;20036;-66
2022/07/07 05:50:26;;;;;;;3.22;1.90;;;;;;;18.35;71.08;100627.06;5050391;28;20025;-66
2022/07/07 05:52:51;;;;;;;4.05;1.80;;;;;;;18.55;70.78;100630.53;5050008;28;20030;-65
2022/07/07 05:55:17;;;;;;;5.03;2.38;;;;;;;18.76;70.27;100632.03;5053077;28;20112;-65
2022/07/07 05:57:42;;;;;;;3.95;1.80;;;;;;;18.81;69.07;100638.03;5053801;28;20040;-65
2022/07/07 06:00:08;;;;;;;2.53;1.50;;;;;;;18.85;67.76;100639.56;5053473;28;20465;-65
2022/07/07 06:02:33;;;;;;;4.15;1.60;;;;;;;18.86;67.20;100641.31;5054354;28;20036;-65
2022/07/07 06:04:59;;;;;;;4.32;2.40;;;;;;;18.83;67.25;100638.81;5035954;28;20529;-65
2022/07/07 06:07:25;;;;;;;3.78;1.63;;;;;;;18.92;66.99;100640.97;5054502;28;20024;-65
2022/07/07 06:09:50;;;;;;;3.45;2.05;;;;;;;18.88;65.97;100631.34;5054173;28;20025;-65
2022/07/07 06:12:16;;;;;;;6.53;2.38;;;;;;;19.06;66.19;100643.78;5053078;28;20058;-66
2022/07/07 06:14:41;;;;;;;3.13;1.67;;;;;;;19.14;66.63;100639.66;5043859;28;20041;-65
2022/07/07 06:17:07;;;;;;;4.15;1.80;;;;;;;19.23;66.57;100630.16;5045064;28;20461;-65
2022/07/07 06:19:32;;;;;;;4.28;1.80;;;;;;;19.33;66.46;100626.00;5038833;28;20052;-65
2022/07/07 06:21:58;;;;;;;4.82;1.70;;;;;;;19.44;65.81;100626.22;5034246;28;20033;-65
2022/07/07 06:24:23;;;;;;;4.75;2.25;;;;;;;19.48;65.84;100633.19;5016127;28;20030;-65
2022/07/07 06:26:49;;;;;;;2.88;1.55;;;;;;;19.56;65.61;100630.91;5017576;28;20033;-65
2022/07/07 06:29:14;;;;;;;4.03;1.75;;;;;;;19.55;65.45;100635.44;5031974;28;20100;-65
2022/07/07 06:31:39;;;;;;;2.35;1.75;;;;;;;19.53;66.18;100641.88;5031978;28;20112;-65
2022/07/07 06:34:05;;;;;;;3.88;1.95;;;;;;;19.63;67.01;100641.25;5032007;28;20338;-66
2022/07/07 06:36:31;;;;;;;3.53;1.52;;;;;;;19.63;67.04;100640.38;5030735;28;20031;-65
2022/07/07 06:38:56;;;;;;;6.03;1.83;;;;;;;19.74;67.09;100632.50;5012493;28;20026;-65
2022/07/07 06:41:23;;;;;;;4.60;1.70;;;;;;;19.75;64.97;100638.78;5013509;28;20026;-65
2022/07/07 06:43:49;;;;;;;3.50;1.90;;;;;;;19.69;65.38;100640.00;5029612;28;20037;-65
2022/07/07 06:46:15;;;;;;;3.97;1.77;;;;;;;19.66;65.72;100640.19;5021305;28;20083;-65
2022/07/07 06:48:40;;;;;;;2.53;1.63;;;;;;;19.60;66.84;100640.56;5026498;28;20029;-65
2022/07/07 06:51:06;;;;;;;4.03;1.92;;;;;;;19.51;66.90;100643.81;5023165;28;20132;-65
2022/07/07 06:53:31;;;;;;;4.85;1.90;;;;;;;19.57;66.98;100646.16;5021329;28;20044;-65
2022/07/07 06:55:57;;;;;;;4.22;2.05;;;;;;;19.63;66.99;100649.38;5022857;28;20021;-65
2022/07/07 06:58:22;;;;;;;3.28;1.80;;;;;;;19.57;67.42;100638.06;5021145;28;20049;-65
2022/07/07 07:00:47;;;;;;;5.38;2.17;;;;;;;19.60;67.61;100635.19;5023875;28;20168;-65
2022/07/07 07:03:13;;;;;;;6.75;2.28;;;;;;;19.82;66.92;100640.16;5013306;28;20030;-65
2022/07/07 07:05:38;;;;;;;3.88;2.00;;;;;;;19.92;66.45;100644.88;5017238;28;20474;-65
2022/07/07 07:08:04;;;;;;;6.47;1.95;;;;;;;20.04;65.49;100646.84;5027586;28;20477;-65
2022/07/07 07:10:29;;;;;;;3.75;1.80;;;;;;;20.10;65.48;100638.34;5032504;28;20037;-65
2022/07/07 07:12:55;;;;;;;4.15;1.73;;;;;;;20.17;63.76;100639.75;5032357;28;20029;-65
2022/07/07 07:15:20;;;;;;;5.00;1.65;;;;;;;20.25;63.24;100644.66;5028945;28;20033;-66
2022/07/07 07:17:45;;;;;;;6.18;2.03;;;;;;;20.37;63.13;100652.03;5028894;28;20037;-65
2022/07/07 07:20:12;;;;;;;5.40;1.88;;;;;;;20.35;62.19;100646.72;5042250;28;20036;-65
2022/07/07 07:22:38;;;;;;;3.38;2.03;;;;;;;20.23;61.88;100646.63;5042215;28;20018;-65
2022/07/07 07:25:04;;;;;;;6.68;2.05;;;;;;;20.22;62.64;100655.69;5042339;28;20465;-65
2022/07/07 07:27:30;;;;;;;3.40;1.70;;;;;;;20.09;62.67;100660.94;5048772;28;20032;-65
2022/07/07 07:29:55;;;;;;;5.28;1.90;;;;;;;19.99;63.71;100659.75;5052923;28;20419;-65
2022/07/07 07:32:20;;;;;;;5.90;1.85;;;;;;;19.97;64.04;100661.69;5052905;28;20025;-65
2022/07/07 07:34:46;;;;;;;2.92;1.55;;;;;;;19.93;64.28;100664.66;5047723;28;20021;-65
2022/07/07 07:37:11;;;;;;;4.47;1.60;;;;;;;19.89;63.89;100653.19;5050454;28;20059;-65
2022/07/07 07:39:37;;;;;;;4.43;1.75;;;;;;;19.98;64.07;100662.56;5041105;28;20031;-65
2022/07/07 07:42:02;;;;;;;4.15;2.00;;;;;;;20.10;64.78;100668.06;5044751;28;20103;-66
2022/07/07 07:47:12;;;;;;;3.65;2.13;;;;;;;20.38;63.45;100668.13;5043672;28;20435;-66
2022/07/07 07:49:37;;;;;;;4.07;1.48;;;;;;;20.40;62.66;100677.03;5050676;28;20026;-65
2022/07/07 07:52:03;;;;;;;3.97;1.80;;;;;;;20.52;62.86;100680.78;5051435;28;20112;-65
2022/07/07 07:54:29;;;;;;;2.72;1.75;;;;;;;20.63;62.03;100680.97;5050616;28;20677;-65
2022/07/07 07:56:54;;;;;;;5.63;2.00;;;;;;;20.72;62.43;100683.97;5051487;28;20057;-65
2022/07/07 07:59:20;;;;;;;2.83;2.13;;;;;;;20.72;60.55;100683.97;5050359;28;20083;-65
2022/07/07 08:01:45;;;;;;;2.70;1.38;;;;;;;20.84;61.57;100685.91;5047450;28;20035;-65
2022/07/07 08:04:10;;;;;;;3.42;1.65;;;;;;;20.95;59.53;100685.22;5047339;28;20409;-65
2022/07/07 08:06:36;;;;;;;2.67;1.30;;;;;;;20.99;61.26;100675.94;5046951;28;20029;-65
2022/07/07 08:09:02;;;;;;;3.92;1.83;;;;;;;21.04;60.36;100678.38;5048593;28;20423;-65
2022/07/07 08:11:28;;;;;;;3.97;1.60;;;;;;;21.10;59.41;100695.09;5050637;28;20464;-65
2022/07/07 08:13:53;;;;;;;2.15;1.33;;;;;;;21.28;60.99;100683.06;5039695;28;20033;-65
2022/07/07 08:16:18;;;;;;;4.18;1.60;;;;;;;21.18;59.03;100675.63;5051876;28;20036;-65
2022/07/07 08:18:44;;;;;;;3.25;1.60;;;;;;;21.34;59.38;100676.34;5070596;28;20056;-65
2022/07/07 08:21:09;;;;;;;2.78;1.50;;;;;;;21.48;58.98;100674.47;5046754;28;20508;-65
2022/07/07 08:23:35;;;;;;;3.10;1.60;;;;;;;21.79;59.37;100667.88;5035907;28;20040;-65
2022/07/07 08:26:01;;;;;;;3.08;1.58;;;;;;;22.23;58.92;100657.53;5013251;28;20374;-65
2022/07/07 08:28:26;;;;;;;2.83;1.60;;;;;;;22.64;56.41;100666.34;5033870;28;20272;-65
2022/07/07 08:30:51;;;;;;;4.07;1.70;;;;;;;22.89;55.37;100674.47;5030024;28;20370;-65
2022/07/07 08:33:17;;;;;;;4.20;1.50;;;;;;;22.86;53.81;100674.69;5033957;28;20108;-65
2022/07/07 08:35:42;;;;;;;4.10;1.50;;;;;;;22.97;53.75;100672.03;5050384;28;20040;-65
2022/07/07 08:38:08;;;;;;;3.40;1.40;;;;;;;23.28;55.67;100676.97;5046501;28;20029;-65
2022/07/07 08:40:34;;;;;;;4.35;1.60;;;;;;;23.41;54.64;100672.34;5038060;28;20388;-65
2022/07/07 08:43:00;;;;;;;2.33;1.30;;;;;;;23.56;53.48;100677.63;5051497;28;20026;-65
2022/07/07 08:45:25;;;;;;;3.45;1.90;;;;;;;23.50;53.36;100673.53;5037801;28;20021;-65
2022/07/07 08:47:51;;;;;;;4.82;1.83;;;;;;;23.40;53.09;100670.63;5047241;28;20392;-66
2022/07/07 08:50:17;;;;;;;2.63;1.48;;;;;;;23.41;53.52;100677.78;5039601;28;20036;-66
2022/07/07 08:52:45;;;;;;;4.47;1.40;;;;;;;23.48;52.95;100689.06;5039647;28;20061;-65
2022/07/07 08:55:12;;;;;;;7.47;1.50;;;;;;;23.42;54.22;100686.81;5036333;28;20040;-65
2022/07/07 08:57:38;;;;;;;8.70;2.72;;;;;;;23.47;55.60;100686.47;5039282;28;20074;-65
2022/07/07 09:00:04;;;;;;;4.65;1.40;;;;;;;23.32;55.80;100683.03;5040113;28;20021;-65
2022/07/07 09:02:29;;;;;;;6.93;1.88;;;;;;;23.26;55.28;100683.47;5043869;28;20033;-65
2022/07/07 09:04:55;;;;;;;5.13;1.73;;;;;;;23.18;56.57;100680.44;5043519;28;20552;-65
2022/07/07 09:07:20;;;;;;;1.73;1.20;;;;;;;23.04;55.76;100686.91;5050951;28;20075;-65
2022/07/07 09:09:52;;;;;;;3.95;1.30;;;;;;;22.87;55.50;100670.97;5052023;28;20021;-65
2022/07/07 09:12:19;;;;;;;1.80;1.27;;;;;;;22.68;56.49;100665.16;5051095;28;20051;-65
2022/07/07 09:14:52;;;;;;;7.03;2.22;;;;;;;22.70;57.59;100662.34;5050810;28;20032;-65
2022/07/07 09:17:31;;;;;;;5.18;1.67;;;;;;;22.75;57.53;100654.75;5059599;28;20055;-65
2022/07/07 09:20:05;;;;;;;4.45;1.73;;;;;;;22.95;57.28;100635.13;5064519;28;20059;-65
2022/07/07 09:22:50;;;;;;;6.85;1.58;;;;;;;23.39;57.04;100625.44;5051569;28;20056;-65
2022/07/07 09:25:21;;;;;;;2.75;1.40;;;;;;;23.93;54.25;100624.91;5051098;28;20472;-65
2022/07/07 09:27:52;;;;;;;7.22;1.90;;;;;;;24.70;51.98;100630.50;5048864;28;20033;-65
2022/07/07 09:30:31;;;;;;;3.47;1.40;;;;;;;25.35;50.79;100626.00;5031355;28;20052;-65
2022/07/07 09:32:57;;;;;;;4.10;1.60;;;;;;;26.12;47.59;100621.16;5049485;28;20040;-65
2022/07/07 09:38:14;;;;;;;2.42;1.38;;;;;;;26.97;45.47;100620.75;5048822;28;20072;-64
2022/07/07 09:40:59;;;;;;;3.25;1.50;;;;;;;27.70;44.95;100621.19;5049222;28;20032;-64
2022/07/07 09:43:28;;;;;;;5.05;1.63;;;;;;;28.30;43.93;100620.84;5049564;28;20033;-64
2022/07/07 09:46:20;;;;;;;4.32;1.30;;;;;;;28.46;42.55;100647.59;5049436;28;20396;-63
2022/07/07 09:48:46;;;;;;;4.88;1.70;;;;;;;27.68;43.86;100657.88;5049069;28;20086;-64
2022/07/07 09:51:21;;;;;;;5.30;1.33;;;;;;;27.00;45.17;100658.72;5049132;28;20028;-64
2022/07/07 09:54:07;;;;;;;3.22;1.40;;;;;;;26.39;47.51;100659.69;5049251;28;20033;-65
2022/07/07 09:56:34;;;;;;;7.38;1.65;;;;;;;26.17;48.65;100654.38;5050003;28;20029;-64
2022/07/07 09:59:02;;;;;;;4.90;1.63;;;;;;;25.84;48.55;100658.09;5050932;28;20048;-64
2022/07/07 10:01:31;;;;;;;4.45;1.88;;;;;;;25.55;48.98;100655.13;5050858;28;20040;-64
2022/07/07 10:04:02;;;;;;;4.10;1.60;;;;;;;25.20;50.63;100659.03;5051005;28;20033;-64
2022/07/07 10:06:29;;;;;;;5.85;1.55;;;;;;;25.01;50.14;100654.22;5050073;28;20374;-64
2022/07/07 10:09:04;;;;;;;7.57;1.95;;;;;;;25.04;50.81;100653.97;5046923;28;20018;-64
2022/07/07 10:11:35;;;;;;;6.38;2.33;;;;;;;25.08;51.64;100636.41;5050858;28;20037;-64
2022/07/07 10:14:09;;;;;;;2.70;1.45;;;;;;;25.62;52.63;100655.47;5049841;28;20021;-64
2022/07/07 10:16:36;;;;;;;5.75;1.80;;;;;;;25.68;52.25;100644.91;5053691;28;20086;-64
2022/07/07 10:19:01;;;;;;;3.60;1.45;;;;;;;25.76;51.55;100636.09;5070756;28;20076;-64
2022/07/07 10:21:27;;;;;;;3.40;1.65;;;;;;;25.77;50.13;100644.13;5051074;28;20393;-64
2022/07/07 10:23:53;;;;;;;3.28;1.52;;;;;;;25.68;50.72;100644.06;5050498;28;20029;-64
2022/07/07 10:26:40;;;;;;;4.75;1.60;;;;;;;25.60;51.64;100646.56;5050533;28;20024;-64
2022/07/07 10:29:08;;;;;;;4.03;1.50;;;;;;;25.53;52.38;100648.09;5050625;28;20029;-64
2022/07/07 10:31:35;;;;;;;5.97;1.80;;;;;;;25.47;52.86;100644.00;5050120;28;20078;-64
2022/07/07 10:34:11;;;;;;;4.63;1.90;;;;;;;25.48;51.56;100643.03;5049325;28;20037;-64
2022/07/07 10:36:46;;;;;;;9.10;1.90;;;;;;;25.44;52.78;100652.44;5031266;28;20393;-64
2022/07/07 10:39:13;;;;;;;2.65;1.85;;;;;;;25.36;52.33;100649.50;5032339;28;20037;-64
2022/07/07 10:41:41;;;;;;;4.90;2.92;;;;;;;25.43;52.81;100650.72;5036706;28;20049;-64
2022/07/07 10:44:09;;;;;;;4.15;2.15;;;;;;;25.34;52.60;100643.28;5043628;28;20033;-64
2022/07/07 10:46:36;;;;;;;6.68;1.73;;;;;;;25.30;52.25;100644.53;5033799;28;20547;-64
2022/07/07 10:49:12;;;;;;;3.88;1.67;;;;;;;25.21;53.93;100639.84;5053849;28;20115;-64
2022/07/07 10:51:55;;;;;;;3.58;1.75;;;;;;;25.07;54.51;100645.56;5053734;28;20028;-64
2022/07/07 10:54:44;;;;;;;4.25;1.77;;;;;;;24.83;52.55;100650.28;5052630;28;20039;-64
2022/07/07 10:57:15;;;;;;;3.08;1.80;;;;;;;24.65;54.62;100649.03;5047006;28;20448;-64
2022/07/07 11:00:06;;;;;;;8.82;4.03;;;;;;;24.68;55.81;100662.41;5033576;28;20109;-64
2022/07/07 11:02:33;;;;;;;8.90;3.25;;;;;;;24.61;57.00;100667.44;5033576;28;20076;-64
2022/07/07 11:05:01;;;;;;;4.97;2.25;;;;;;;24.41;57.88;100660.03;5033686;28;20029;-64
2022/07/07 11:07:28;;;;;;;6.38;2.85;;;;;;;24.32;58.26;100662.59;5033227;28;20044;-64
2022/07/07 11:10:11;;;;;;;3.65;1.90;;;;;;;24.22;59.87;100676.06;5033809;28;20393;-64
2022/07/07 11:12:44;;;;;;;3.83;1.98;;;;;;;24.09;60.53;100678.00;5032995;28;20029;-64
2022/07/07 11:15:35;;;;;;;4.43;1.95;;;;;;;23.88;58.19;100671.47;5033597;28;20040;-64
2022/07/07 11:18:01;;;;;;;4.82;2.15;;;;;;;23.75;60.29;100664.38;5052935;28;20439;-64
2022/07/07 11:20:56;;;;;;;5.40;2.08;;;;;;;23.72;61.46;100670.06;5053169;28;20032;-64
2022/07/07 11:23:22;;;;;;;3.95;1.90;;;;;;;23.59;59.40;100674.69;5052291;28;20028;-64
2022/07/07 11:25:51;;;;;;;2.97;1.90;;;;;;;23.49;59.97;100681.78;5053551;28;20396;-64
2022/07/07 11:28:16;;;;;;;3.33;1.90;;;;;;;23.47;60.03;100689.19;5053100;28;20106;-64
2022/07/07 11:30:42;;;;;;;3.67;1.85;;;;;;;23.60;60.70;100687.28;5053148;28;20021;-64